Time;durP1;ratioP1;P1;durP2;ratioP2;P2;SDS_P1;SDS_P2;PMS_P1;PMS_P2;Temp;Humidity;BMP_temperature;BMP_pressure;BME280_temperature;BME280_humidity;BME280_pressure;Samples;Min_cycle;Max_cycle;Signal;HPM_P1;HPM_P2
2021/07/27 00:00:31;;;;;;;8.13;7.40;;;16.70;99.90;;;;;;5058730;28;20451;-86
2021/07/27 00:03:00;;;;;;;7.20;6.10;;;16.60;99.90;;;;;;5058316;28;20448;-86
2021/07/27 00:05:26;;;;;;;7.27;5.80;;;16.60;99.90;;;;;;5055968;28;20478;-86
2021/07/27 00:07:55;;;;;;;8.17;7.37;;;16.60;99.90;;;;;;5056767;28;20524;-85
2021/07/27 00:10:21;;;;;;;8.07;7.27;;;16.60;99.90;;;;;;5057405;28;20442;-86
2021/07/27 00:12:48;;;;;;;7.47;6.77;;;16.70;99.90;;;;;;5057508;28;20439;-86
2021/07/27 00:15:15;;;;;;;11.30;7.20;;;16.70;99.90;;;;;;5056684;28;20482;-87
2021/07/27 00:17:42;;;;;;;9.63;6.07;;;16.70;99.90;;;;;;5056484;28;20456;-87
2021/07/27 00:20:10;;;;;;;6.47;5.60;;;16.70;99.90;;;;;;5055011;28;20453;-86
2021/07/27 00:22:40;;;;;;;6.40;5.80;;;16.70;99.90;;;;;;5042350;28;20980;-85
2021/07/27 00:25:09;;;;;;;7.20;6.50;;;16.70;99.90;;;;;;5039938;28;20482;-85
2021/07/27 00:27:36;;;;;;;8.00;6.67;;;16.70;99.90;;;;;;5041080;28;20852;-86
2021/07/27 00:30:06;;;;;;;6.90;5.70;;;16.70;99.90;;;;;;5040059;28;20774;-85
2021/07/27 00:32:32;;;;;;;11.20;6.57;;;16.70;99.90;;;;;;5039828;28;20458;-86
2021/07/27 00:34:59;;;;;;;7.13;6.43;;;16.50;99.90;;;;;;5040368;28;20442;-87
2021/07/27 00:37:29;;;;;;;8.20;7.10;;;16.60;99.90;;;;;;5040222;28;20455;-86
2021/07/27 00:39:56;;;;;;;7.80;6.20;;;16.70;99.90;;;;;;5039702;28;21014;-87
2021/07/27 00:42:26;;;;;;;7.13;6.37;;;16.60;99.90;;;;;;5039991;28;20454;-87
2021/07/27 00:44:53;;;;;;;8.83;7.30;;;16.70;99.90;;;;;;5039446;28;20497;-86
2021/07/27 00:47:19;;;;;;;7.53;6.83;;;16.70;99.90;;;;;;5039513;28;20455;-85
2021/07/27 00:49:46;;;;;;;7.57;6.87;;;16.70;99.90;;;;;;5040248;28;20491;-86
2021/07/27 00:52:13;;;;;;;7.77;7.00;;;16.70;99.90;;;;;;5039007;28;20454;-85
2021/07/27 00:54:41;;;;;;;7.27;6.60;;;16.60;99.90;;;;;;5039536;28;20455;-86
2021/07/27 00:57:07;;;;;;;9.07;7.27;;;16.60;99.90;;;;;;5039519;28;20456;-85
2021/07/27 00:59:36;;;;;;;7.53;6.77;;;16.60;99.90;;;;;;5039067;28;20480;-87
2021/07/27 01:02:02;;;;;;;11.00;7.60;;;16.60;99.90;;;;;;5039263;28;20461;-86
2021/07/27 01:04:29;;;;;;;12.43;8.10;;;16.50;99.90;;;;;;5039716;28;20456;-86
2021/07/27 01:06:56;;;;;;;7.73;7.03;;;16.40;99.90;;;;;;5039351;28;20893;-86
2021/07/27 01:09:23;;;;;;;7.93;7.23;;;16.50;99.90;;;;;;5036649;28;20486;-87
2021/07/27 01:11:50;;;;;;;7.97;7.23;;;16.50;99.90;;;;;;5034500;28;20459;-88
2021/07/27 01:14:16;;;;;;;7.63;6.97;;;16.60;99.90;;;;;;5034255;28;20453;-87
2021/07/27 01:16:44;;;;;;;9.70;6.80;;;16.50;99.90;;;;;;5034740;28;20473;-87
2021/07/27 01:19:26;;;;;;;8.20;7.10;;;16.50;99.90;;;;;;5034552;28;20453;-87
2021/07/27 01:38:53;;;;;;;7.73;7.13;;;16.30;99.90;;;;;;5035013;28;20425;-87
2021/07/27 01:44:05;;;;;;;9.33;8.17;;;16.30;99.90;;;;;;5034328;28;20423;-87
2021/07/27 01:46:33;;;;;;;9.33;8.53;;;16.20;99.90;;;;;;5034876;28;20466;-87
2021/07/27 01:49:00;;;;;;;8.40;7.43;;;16.20;99.90;;;;;;5034096;28;20490;-87
2021/07/27 01:51:27;;;;;;;8.33;7.40;;;16.30;99.90;;;;;;5034419;28;20537;-87
2021/07/27 01:53:56;;;;;;;8.13;7.10;;;16.30;99.90;;;;;;5033656;28;20507;-87
2021/07/27 01:56:24;;;;;;;9.40;8.60;;;16.30;99.90;;;;;;5034395;28;20560;-87
2021/07/27 01:58:52;;;;;;;11.63;8.77;;;16.30;99.90;;;;;;5033947;28;20503;-87
2021/07/27 02:01:20;;;;;;;9.63;8.73;;;16.30;99.90;;;;;;5033792;28;20454;-87
2021/07/27 02:03:47;;;;;;;9.10;8.23;;;16.30;99.90;;;;;;5033954;28;21000;-87
2021/07/27 02:06:15;;;;;;;8.87;8.03;;;16.30;99.90;;;;;;5032784;28;20837;-87
2021/07/27 02:08:42;;;;;;;8.30;7.50;;;16.40;99.90;;;;;;5033543;28;20479;-88
2021/07/27 02:11:12;;;;;;;9.13;8.10;;;16.40;99.90;;;;;;5034393;28;20452;-87
2021/07/27 02:13:47;;;;;;;8.63;7.73;;;16.30;99.90;;;;;;5037920;28;20456;-87
2021/07/27 02:16:14;;;;;;;8.33;7.53;;;16.30;99.90;;;;;;5037427;28;20560;-87
2021/07/27 02:18:40;;;;;;;9.57;8.20;;;16.30;99.90;;;;;;5037804;28;20452;-87
2021/07/27 02:21:07;;;;;;;9.37;8.47;;;16.30;99.90;;;;;;5037006;28;20449;-87
2021/07/27 02:23:34;;;;;;;9.73;8.00;;;16.20;99.90;;;;;;5037569;28;20447;-87
2021/07/27 02:26:02;;;;;;;9.33;7.60;;;16.30;99.90;;;;;;5037254;28;21006;-87
2021/07/27 02:28:31;;;;;;;11.03;7.80;;;16.20;99.90;;;;;;5037660;28;21022;-87
2021/07/27 02:31:00;;;;;;;9.97;9.10;;;16.30;99.90;;;;;;5037291;28;20449;-87
2021/07/27 02:33:28;;;;;;;10.10;9.10;;;16.30;99.90;;;;;;5037183;28;20441;-87
2021/07/27 02:35:56;;;;;;;8.97;8.07;;;16.30;99.90;;;;;;5036576;28;21059;-87
2021/07/27 02:38:23;;;;;;;9.30;8.40;;;16.30;99.90;;;;;;5037384;28;20511;-87
2021/07/27 02:40:50;;;;;;;9.33;8.37;;;16.20;99.90;;;;;;5036961;28;20943;-87
2021/07/27 02:43:17;;;;;;;9.50;7.57;;;16.20;99.90;;;;;;5036827;28;20453;-87
2021/07/27 02:45:45;;;;;;;14.30;8.30;;;16.20;99.90;;;;;;5038196;28;20469;-87
2021/07/27 02:48:12;;;;;;;9.23;8.33;;;16.20;99.90;;;;;;5036645;28;20456;-88
2021/07/27 02:50:59;;;;;;;9.50;8.50;;;16.30;99.90;;;;;;5037698;28;20964;-87
2021/07/27 02:53:29;;;;;;;9.47;8.57;;;16.30;99.90;;;;;;5037165;28;20455;-87
2021/07/27 02:55:57;;;;;;;9.23;8.43;;;16.30;99.90;;;;;;5035557;28;20482;-87
2021/07/27 02:58:31;;;;;;;10.63;9.33;;;16.30;99.90;;;;;;5036881;28;20489;-87
2021/07/27 03:01:00;;;;;;;11.13;10.00;;;16.30;99.90;;;;;;5036467;28;20465;-87
2021/07/27 03:03:26;;;;;;;8.97;8.07;;;16.30;99.90;;;;;;5036923;28;20464;-87
2021/07/27 03:05:59;;;;;;;9.80;8.80;;;16.30;99.90;;;;;;5036321;28;20488;-88
2021/07/27 03:08:35;;;;;;;9.87;8.97;;;16.30;99.90;;;;;;5037319;28;20532;-87
2021/07/27 03:11:02;;;;;;;10.43;8.50;;;16.40;99.90;;;;;;5036696;28;20546;-87
2021/07/27 03:13:29;;;;;;;8.47;7.77;;;16.40;99.90;;;;;;5036914;28;20449;-87
2021/07/27 03:15:56;;;;;;;10.30;9.30;;;16.50;99.90;;;;;;5036309;28;20529;-87
2021/07/27 03:18:24;;;;;;;9.50;8.50;;;16.40;99.90;;;;;;5036957;28;20464;-87
2021/07/27 03:20:51;;;;;;;8.73;7.90;;;16.40;99.90;;;;;;5036184;28;20512;-87
2021/07/27 03:23:21;;;;;;;9.80;8.80;;;16.50;99.90;;;;;;5035366;28;20462;-87
2021/07/27 03:25:48;;;;;;;9.70;8.47;;;16.50;99.90;;;;;;5036170;28;20475;-87
2021/07/27 03:28:17;;;;;;;8.47;7.47;;;16.50;99.90;;;;;;5035827;28;20462;-88
2021/07/27 03:30:44;;;;;;;9.07;8.17;;;16.50;99.90;;;;;;5036028;28;20450;-87
2021/07/27 03:33:10;;;;;;;8.83;8.03;;;16.50;99.90;;;;;;5035961;28;20456;-87
2021/07/27 03:35:38;;;;;;;9.30;8.50;;;16.50;99.90;;;;;;5036638;28;20473;-87
2021/07/27 03:38:05;;;;;;;9.77;8.90;;;16.50;99.90;;;;;;5027651;28;20450;-87
2021/07/27 03:40:33;;;;;;;11.60;8.93;;;16.50;99.90;;;;;;5037064;28;20447;-87
2021/07/27 03:43:00;;;;;;;11.00;8.13;;;16.50;99.90;;;;;;5050712;28;20443;-87
2021/07/27 03:45:27;;;;;;;9.60;8.70;;;16.50;99.90;;;;;;5050310;28;20465;-87
2021/07/27 03:47:53;;;;;;;7.93;7.33;;;16.50;99.90;;;;;;5040660;28;20449;-87
2021/07/27 03:50:20;;;;;;;7.90;7.20;;;16.50;99.90;;;;;;5035300;28;20499;-87
2021/07/27 03:52:48;;;;;;;9.40;8.60;;;16.50;99.90;;;;;;5035529;28;20806;-87
2021/07/27 03:55:15;;;;;;;10.30;9.20;;;16.50;99.90;;;;;;5038383;28;20489;-87
2021/07/27 03:57:42;;;;;;;9.17;8.27;;;16.40;99.90;;;;;;5036410;28;20457;-87
2021/07/27 04:00:10;;;;;;;11.23;8.37;;;16.40;99.90;;;;;;5035818;28;20446;-87
2021/07/27 04:02:36;;;;;;;8.37;7.60;;;16.30;99.90;;;;;;5036342;28;20459;-87
2021/07/27 04:05:05;;;;;;;9.60;8.80;;;16.20;99.90;;;;;;5035224;28;21064;-87
2021/07/27 04:07:32;;;;;;;9.27;8.37;;;16.20;99.90;;;;;;5036291;28;20458;-87
2021/07/27 04:10:00;;;;;;;8.77;7.87;;;16.10;99.90;;;;;;5035417;28;20492;-87
2021/07/27 04:12:27;;;;;;;9.13;8.13;;;16.00;99.90;;;;;;5036011;28;20450;-88
2021/07/27 04:14:53;;;;;;;10.10;9.30;;;15.90;99.90;;;;;;5035250;28;20459;-87
2021/07/27 04:17:20;;;;;;;10.53;9.53;;;16.00;99.90;;;;;;5035650;28;20951;-87
2021/07/27 04:19:48;;;;;;;9.27;8.40;;;16.00;99.90;;;;;;5035531;28;20931;-87
2021/07/27 04:22:15;;;;;;;9.43;8.53;;;16.00;99.90;;;;;;5035024;28;20437;-88
2021/07/27 04:24:42;;;;;;;8.73;7.83;;;16.10;99.90;;;;;;5036193;28;20465;-87
2021/07/27 04:27:11;;;;;;;10.40;8.50;;;16.10;99.90;;;;;;5035198;28;20462;-87
2021/07/27 04:29:37;;;;;;;9.70;8.70;;;16.10;99.90;;;;;;5035697;28;20485;-87
2021/07/27 04:32:05;;;;;;;11.63;10.43;;;16.10;99.90;;;;;;5033977;28;20449;-87
2021/07/27 04:34:31;;;;;;;9.33;8.43;;;16.20;99.90;;;;;;5034244;28;20832;-87
2021/07/27 04:36:58;;;;;;;11.63;9.47;;;16.20;99.90;;;;;;5033711;28;20847;-87
2021/07/27 04:39:26;;;;;;;9.67;8.73;;;16.20;99.90;;;;;;5034238;28;20449;-87
2021/07/27 04:41:53;;;;;;;9.07;8.10;;;16.10;99.90;;;;;;5033597;28;20453;-89
2021/07/27 04:44:21;;;;;;;9.07;8.17;;;16.20;99.90;;;;;;5033807;28;20464;-88
2021/07/27 04:46:48;;;;;;;9.77;8.40;;;16.20;99.90;;;;;;5033903;28;20476;-88
2021/07/27 04:49:15;;;;;;;10.57;9.20;;;16.20;99.90;;;;;;5033643;28;20488;-89
2021/07/27 04:51:42;;;;;;;10.07;9.10;;;16.20;99.90;;;;;;5033163;28;20825;-88
2021/07/27 04:54:15;;;;;;;9.60;8.80;;;16.20;99.90;;;;;;5033615;28;20452;-87
2021/07/27 04:56:42;;;;;;;9.87;8.97;;;16.20;99.90;;;;;;5034133;28;20477;-88
2021/07/27 04:59:08;;;;;;;9.80;8.37;;;16.10;99.90;;;;;;5033451;28;20491;-88
2021/07/27 05:01:40;;;;;;;11.63;9.57;;;16.20;99.90;;;;;;5034397;28;20460;-88
2021/07/27 05:04:07;;;;;;;9.40;8.50;;;16.10;99.90;;;;;;5033262;28;20450;-88
2021/07/27 05:06:34;;;;;;;10.83;9.00;;;16.20;99.90;;;;;;5033165;28;20484;-87
2021/07/27 05:09:01;;;;;;;9.70;8.70;;;16.20;99.90;;;;;;5038967;28;20454;-88
2021/07/27 05:11:28;;;;;;;9.20;8.03;;;16.10;99.90;;;;;;5038896;28;20456;-87
2021/07/27 05:13:56;;;;;;;10.67;8.80;;;16.20;99.90;;;;;;5037888;28;20460;-87
2021/07/27 05:16:22;;;;;;;9.73;8.73;;;16.20;99.90;;;;;;5035695;28;20475;-88
2021/07/27 05:18:51;;;;;;;9.90;9.10;;;16.20;99.90;;;;;;5034312;28;20450;-87
2021/07/27 05:21:18;;;;;;;10.63;9.60;;;16.20;99.90;;;;;;5037124;28;20449;-88
2021/07/27 05:23:45;;;;;;;10.27;8.40;;;16.20;99.90;;;;;;5032621;28;20970;-87
2021/07/27 05:26:12;;;;;;;9.80;8.90;;;16.30;99.90;;;;;;5032272;28;21009;-88
2021/07/27 05:28:39;;;;;;;9.50;8.70;;;16.30;99.90;;;;;;5032115;28;20481;-88
2021/07/27 05:31:06;;;;;;;7.93;7.13;;;16.30;99.90;;;;;;5032283;28;20485;-88
2021/07/27 05:33:34;;;;;;;8.83;8.03;;;16.40;99.90;;;;;;5032055;28;20461;-88
2021/07/27 05:36:02;;;;;;;11.77;9.77;;;16.60;99.90;;;;;;5032103;28;20466;-87
2021/07/27 05:38:28;;;;;;;9.77;8.80;;;16.60;99.90;;;;;;5032202;28;20452;-88
2021/07/27 05:40:55;;;;;;;9.07;8.27;;;16.60;99.90;;;;;;5032076;28;20454;-88
2021/07/27 05:43:22;;;;;;;9.43;8.70;;;16.60;99.90;;;;;;5031860;28;20964;-88
2021/07/27 05:45:49;;;;;;;10.53;9.53;;;16.70;99.90;;;;;;5031730;28;20831;-87
2021/07/27 05:48:15;;;;;;;8.17;7.37;;;16.80;99.90;;;;;;5032012;28;20450;-88
2021/07/27 05:50:42;;;;;;;8.63;7.83;;;16.80;99.90;;;;;;5032036;28;20548;-88
2021/07/27 05:53:11;;;;;;;7.87;7.27;;;16.90;99.90;;;;;;5031758;28;20777;-87
2021/07/27 05:55:37;;;;;;;9.73;8.37;;;17.00;99.90;;;;;;5031902;28;20474;-87
2021/07/27 05:58:04;;;;;;;9.10;8.33;;;17.10;99.90;;;;;;5032180;28;20462;-87
2021/07/27 06:00:31;;;;;;;9.67;7.70;;;17.20;99.90;;;;;;5032135;28;20530;-87
2021/07/27 06:02:57;;;;;;;7.63;6.90;;;17.40;99.90;;;;;;5031935;28;20459;-86
2021/07/27 06:05:24;;;;;;;8.10;7.30;;;17.50;99.90;;;;;;5031846;28;20478;-87
2021/07/27 06:07:51;;;;;;;9.13;7.70;;;17.70;99.90;;;;;;5031944;28;20452;-86
2021/07/27 06:10:19;;;;;;;7.97;7.17;;;17.90;99.90;;;;;;5036612;28;20491;-85
2021/07/27 06:12:46;;;;;;;7.20;6.60;;;17.90;99.90;;;;;;5038701;28;20452;-85
2021/07/27 06:15:13;;;;;;;7.47;6.77;;;18.00;99.90;;;;;;5038555;28;20494;-85
2021/07/27 06:17:40;;;;;;;8.80;7.13;;;18.10;99.90;;;;;;5038855;28;20454;-84
2021/07/27 06:20:08;;;;;;;6.37;5.77;;;18.20;99.90;;;;;;5038514;28;20456;-85
2021/07/27 06:22:34;;;;;;;7.90;7.27;;;18.20;99.90;;;;;;5038396;28;20467;-85
2021/07/27 06:25:03;;;;;;;7.60;6.50;;;18.40;99.90;;;;;;5038049;28;20454;-85
2021/07/27 06:27:31;;;;;;;7.63;6.80;;;18.60;99.90;;;;;;5038269;28;20449;-85
2021/07/27 06:29:57;;;;;;;6.30;5.80;;;18.70;99.90;;;;;;5037507;28;21032;-85
2021/07/27 06:32:24;;;;;;;6.37;5.80;;;18.80;99.90;;;;;;5032697;28;20473;-84
2021/07/27 06:34:51;;;;;;;6.77;6.10;;;18.90;99.90;;;;;;5031030;28;20456;-86
2021/07/27 06:37:18;;;;;;;6.37;5.87;;;19.10;99.90;;;;;;5031715;28;20438;-85
2021/07/27 06:39:44;;;;;;;7.30;6.70;;;19.10;99.90;;;;;;5035176;28;20467;-84
2021/07/27 06:42:11;;;;;;;8.60;6.70;;;19.20;99.90;;;;;;5035129;28;20443;-85
2021/07/27 06:44:39;;;;;;;7.10;6.60;;;19.20;99.90;;;;;;5034659;28;20440;-86
2021/07/27 06:47:08;;;;;;;6.60;6.00;;;19.20;99.90;;;;;;5025537;28;20970;-85
2021/07/27 06:49:34;;;;;;;8.33;7.47;;;19.30;99.90;;;;;;5036090;28;20454;-86
2021/07/27 06:52:01;;;;;;;6.10;5.60;;;19.20;99.90;;;;;;5033915;28;20481;-85
2021/07/27 06:54:28;;;;;;;7.23;6.50;;;19.20;99.90;;;;;;5035116;28;20519;-85
2021/07/27 06:56:56;;;;;;;6.60;6.10;;;19.30;99.90;;;;;;5032374;28;20462;-86
2021/07/27 06:59:23;;;;;;;7.27;6.27;;;19.40;99.90;;;;;;5037240;28;20519;-86
2021/07/27 07:01:51;;;;;;;6.77;5.87;;;19.40;99.90;;;;;;5038681;28;20453;-86
2021/07/27 07:04:18;;;;;;;6.67;6.07;;;19.50;99.90;;;;;;5038318;28;20826;-86
2021/07/27 07:06:45;;;;;;;6.70;6.00;;;19.50;99.90;;;;;;5038473;28;20470;-85
2021/07/27 07:09:12;;;;;;;6.63;6.13;;;19.60;99.90;;;;;;5032364;28;20796;-85
2021/07/27 07:11:38;;;;;;;7.30;6.10;;;19.60;99.90;;;;;;5039112;28;20488;-85
2021/07/27 07:14:05;;;;;;;6.37;5.77;;;19.70;99.90;;;;;;5040601;28;20454;-85
2021/07/27 07:16:32;;;;;;;6.40;5.80;;;19.80;99.90;;;;;;5039883;28;20475;-85
2021/07/27 07:19:00;;;;;;;7.30;5.77;;;19.80;99.90;;;;;;5039801;28;20453;-86
2021/07/27 07:21:27;;;;;;;7.90;7.20;;;19.90;99.90;;;;;;5029884;28;20531;-86
2021/07/27 07:23:53;;;;;;;6.57;6.07;;;20.00;99.90;;;;;;5017515;28;20460;-86
2021/07/27 07:26:20;;;;;;;7.13;6.40;;;20.10;99.90;;;;;;5020124;28;20494;-86
2021/07/27 07:28:47;;;;;;;6.37;5.83;;;20.20;99.90;;;;;;5020397;28;20475;-86
2021/07/27 07:31:16;;;;;;;6.70;6.17;;;20.30;99.90;;;;;;5023271;28;20497;-87
2021/07/27 07:33:43;;;;;;;7.03;6.47;;;20.40;99.90;;;;;;5040084;28;20464;-87
2021/07/27 07:36:12;;;;;;;7.90;6.57;;;20.50;99.90;;;;;;5062105;28;20470;-86
2021/07/27 07:38:39;;;;;;;7.40;6.70;;;20.60;99.90;;;;;;5061635;28;20452;-85
2021/07/27 07:41:07;;;;;;;6.60;5.37;;;20.70;99.90;;;;;;5055315;28;20440;-86
2021/07/27 07:43:34;;;;;;;6.17;5.60;;;20.80;99.90;;;;;;5061252;28;20957;-86
2021/07/27 07:46:01;;;;;;;6.20;5.70;;;20.70;99.90;;;;;;5071935;28;20545;-86
2021/07/27 07:48:27;;;;;;;6.73;5.90;;;20.90;99.90;;;;;;5076833;28;20455;-86
2021/07/27 07:50:54;;;;;;;6.87;6.27;;;20.90;99.90;;;;;;5073078;28;20541;-85
2021/07/27 07:53:22;;;;;;;8.90;7.63;;;20.90;99.90;;;;;;5062064;28;20459;-86
2021/07/27 07:55:49;;;;;;;8.47;5.97;;;21.10;99.90;;;;;;5059642;28;20835;-85
2021/07/27 07:58:16;;;;;;;8.03;7.33;;;21.10;99.90;;;;;;5058418;28;20446;-85
2021/07/27 08:00:43;;;;;;;6.43;5.93;;;21.20;99.90;;;;;;5057891;28;20504;-85
2021/07/27 08:03:10;;;;;;;6.40;5.43;;;21.30;99.90;;;;;;5057952;28;20501;-85
2021/07/27 08:05:37;;;;;;;6.90;6.30;;;21.40;99.90;;;;;;5060537;28;20492;-86
2021/07/27 08:08:04;;;;;;;6.10;5.60;;;21.60;99.90;;;;;;5060596;28;20452;-86
2021/07/27 08:10:33;;;;;;;6.80;6.20;;;21.80;99.90;;;;;;5061154;28;20481;-86
2021/07/27 08:13:00;;;;;;;6.37;5.87;;;21.90;99.90;;;;;;5058009;28;20529;-86
2021/07/27 08:15:27;;;;;;;6.70;6.20;;;22.10;99.90;;;;;;5057741;28;20458;-86
2021/07/27 08:17:54;;;;;;;6.40;5.80;;;22.20;99.90;;;;;;5060491;28;20522;-85
2021/07/27 08:20:22;;;;;;;6.53;6.03;;;22.30;99.90;;;;;;5061898;28;20447;-85
2021/07/27 08:22:49;;;;;;;6.40;5.90;;;22.40;99.90;;;;;;5061773;28;20480;-85
2021/07/27 08:25:17;;;;;;;6.63;6.00;;;22.40;99.90;;;;;;5050324;28;20481;-85
2021/07/27 08:27:46;;;;;;;7.30;6.70;;;22.40;99.90;;;;;;5038511;28;20654;-86
2021/07/27 08:30:14;;;;;;;7.27;6.30;;;22.50;99.90;;;;;;5039897;28;20493;-86
2021/07/27 08:32:46;;;;;;;6.17;5.77;;;22.60;99.90;;;;;;5038798;28;20454;-86
2021/07/27 08:35:13;;;;;;;6.60;6.00;;;22.70;99.90;;;;;;5041792;28;20986;-86
2021/07/27 08:37:40;;;;;;;7.57;6.80;;;22.70;99.90;;;;;;5041098;28;20457;-86
2021/07/27 08:40:08;;;;;;;6.60;6.10;;;22.70;99.90;;;;;;5041979;28;20456;-85
2021/07/27 08:42:35;;;;;;;6.10;5.60;;;22.80;99.90;;;;;;5037822;28;20452;-87
2021/07/27 08:45:05;;;;;;;5.60;5.10;;;22.90;99.90;;;;;;5040691;28;20525;-86
2021/07/27 08:47:32;;;;;;;6.47;5.90;;;22.90;99.90;;;;;;5042338;28;20446;-86
2021/07/27 08:50:00;;;;;;;6.87;6.17;;;22.90;99.90;;;;;;5022508;28;20435;-85
2021/07/27 08:52:27;;;;;;;7.63;6.57;;;23.00;99.90;;;;;;5040296;28;20466;-84
2021/07/27 08:54:54;;;;;;;7.10;6.40;;;23.00;99.90;;;;;;5040804;28;20451;-85
2021/07/27 08:57:21;;;;;;;6.63;5.87;;;23.00;99.90;;;;;;5040829;28;20501;-85
2021/07/27 08:59:48;;;;;;;6.63;6.07;;;23.10;99.90;;;;;;5041741;28;20477;-86
2021/07/27 09:02:26;;;;;;;7.33;5.43;;;23.10;99.90;;;;;;5040882;28;20461;-86
2021/07/27 09:05:03;;;;;;;6.50;6.00;;;23.30;99.90;;;;;;5042127;28;20438;-86
2021/07/27 09:07:32;;;;;;;6.53;5.93;;;23.10;99.90;;;;;;5041063;28;20458;-86
2021/07/27 09:09:59;;;;;;;6.70;6.00;;;22.90;99.90;;;;;;5040693;28;20953;-87
2021/07/27 09:12:26;;;;;;;6.40;5.83;;;22.80;99.90;;;;;;5041851;28;20461;-87
2021/07/27 09:14:53;;;;;;;6.97;6.27;;;22.80;99.90;;;;;;5035430;28;20463;-85
2021/07/27 09:17:26;;;;;;;6.50;6.00;;;22.80;99.90;;;;;;5034776;28;20792;-85
2021/07/27 09:19:53;;;;;;;7.00;6.30;;;22.70;99.90;;;;;;5040716;28;20561;-85
2021/07/27 09:22:20;;;;;;;6.60;6.00;;;22.80;99.90;;;;;;5043368;28;20521;-86
2021/07/27 09:24:47;;;;;;;7.40;6.70;;;22.90;99.90;;;;;;5044528;28;20446;-85
2021/07/27 09:27:13;;;;;;;7.30;6.60;;;23.00;99.90;;;;;;5045799;28;20457;-85
2021/07/27 09:29:45;;;;;;;7.80;7.20;;;23.10;99.90;;;;;;5043321;28;20501;-86
2021/07/27 09:32:17;;;;;;;7.00;5.70;;;23.40;99.90;;;;;;5040112;28;20546;-87
2021/07/27 09:34:46;;;;;;;5.57;5.17;;;23.40;99.90;;;;;;5038968;28;20453;-87
2021/07/27 09:37:13;;;;;;;7.07;5.80;;;23.40;99.90;;;;;;5038772;28;20451;-85
2021/07/27 09:39:40;;;;;;;9.03;7.57;;;23.40;99.90;;;;;;5040074;28;20478;-85
2021/07/27 09:42:10;;;;;;;5.87;5.47;;;23.40;99.90;;;;;;5039975;28;20464;-85
2021/07/27 09:44:38;;;;;;;5.60;5.20;;;23.40;99.90;;;;;;5036371;28;20478;-84
2021/07/27 09:47:50;;;;;;;6.33;5.77;;;23.60;99.90;;;;;;5033869;28;20479;-89
2021/07/27 09:50:49;;;;;;;6.27;5.83;;;23.70;99.70;;;;;;5032377;28;20779;-87
2021/07/27 09:53:16;;;;;;;5.97;5.47;;;23.90;98.20;;;;;;5030514;28;20485;-88
2021/07/27 09:55:43;;;;;;;5.67;5.17;;;23.90;98.60;;;;;;5032768;28;20503;-89
2021/07/27 09:58:10;;;;;;;6.40;5.80;;;23.90;99.00;;;;;;5032360;28;21032;-87
2021/07/27 10:01:05;;;;;;;5.20;4.57;;;24.00;98.80;;;;;;5032280;28;20937;-89
2021/07/27 10:03:38;;;;;;;5.40;4.90;;;23.90;96.90;;;;;;5032684;28;20453;-86
2021/07/27 10:06:07;;;;;;;5.50;5.00;;;24.10;97.30;;;;;;5032551;28;20476;-87
2021/07/27 10:08:36;;;;;;;4.97;4.53;;;24.00;97.50;;;;;;5033131;28;20457;-86
2021/07/27 10:11:08;;;;;;;5.47;4.97;;;24.10;97.70;;;;;;5032418;28;20488;-86
2021/07/27 10:13:35;;;;;;;6.40;5.70;;;24.30;97.00;;;;;;5033725;28;20464;-86
2021/07/27 10:16:03;;;;;;;5.40;4.93;;;24.50;96.00;;;;;;5032492;28;20492;-87
2021/07/27 10:18:32;;;;;;;5.97;5.47;;;24.80;96.40;;;;;;5032141;28;20955;-86
2021/07/27 10:21:26;;;;;;;5.43;4.93;;;25.10;96.10;;;;;;5032500;28;20830;-89
2021/07/27 10:23:54;;;;;;;5.80;5.40;;;25.40;96.70;;;;;;5032433;28;20481;-89
2021/07/27 10:26:34;;;;;;;6.63;5.50;;;25.70;95.40;;;;;;5032225;28;20481;-89
2021/07/27 10:29:02;;;;;;;5.20;4.80;;;25.80;94.80;;;;;;5031839;28;20432;-88
2021/07/27 10:31:33;;;;;;;4.70;4.30;;;26.00;94.00;;;;;;5048298;28;20495;-88
2021/07/27 10:34:00;;;;;;;5.00;4.60;;;26.20;93.90;;;;;;5035422;28;20467;-87
2021/07/27 10:36:32;;;;;;;6.03;5.07;;;26.60;93.50;;;;;;5036209;28;20476;-88
2021/07/27 10:39:13;;;;;;;6.07;5.57;;;27.00;93.10;;;;;;5035757;28;20452;-87
2021/07/27 10:41:43;;;;;;;5.43;5.03;;;27.10;91.70;;;;;;5033388;28;20459;-87
2021/07/27 10:44:12;;;;;;;6.17;5.67;;;27.20;91.20;;;;;;5034657;28;21025;-88
2021/07/27 10:46:41;;;;;;;5.50;5.10;;;27.20;91.60;;;;;;5026142;28;20481;-87
2021/07/27 10:49:26;;;;;;;5.80;5.30;;;27.30;91.80;;;;;;5050371;28;20666;-89
2021/07/27 10:51:59;;;;;;;5.10;4.60;;;27.40;90.70;;;;;;5054914;28;20894;-86
2021/07/27 10:54:50;;;;;;;5.23;4.83;;;27.60;90.80;;;;;;5054633;28;20511;-89
2021/07/27 10:57:31;;;;;;;5.27;4.87;;;27.70;90.60;;;;;;5015426;28;20427;-89
2021/07/27 10:59:58;;;;;;;5.33;4.90;;;27.60;90.20;;;;;;5016480;28;20423;-91
2021/07/27 11:02:25;;;;;;;5.27;4.87;;;27.50;90.50;;;;;;5024865;28;20947;-87
2021/07/27 11:04:52;;;;;;;5.80;5.33;;;27.40;89.10;;;;;;5036728;28;20855;-86
2021/07/27 11:07:20;;;;;;;5.77;5.27;;;27.50;89.40;;;;;;5037794;22;20501;-84
2021/07/27 11:09:51;;;;;;;5.43;5.03;;;27.60;90.20;;;;;;5037919;28;20449;-84
2021/07/27 11:12:28;;;;;;;5.50;5.00;;;27.80;89.70;;;;;;5031764;28;20520;-84
2021/07/27 11:15:06;;;;;;;4.97;4.57;;;28.10;87.40;;;;;;5022720;28;20448;-87
2021/07/27 11:17:33;;;;;;;5.63;4.53;;;28.60;86.70;;;;;;5023729;28;20462;-87
2021/07/27 11:20:00;;;;;;;5.10;4.70;;;28.90;86.10;;;;;;5014789;28;20972;-85
2021/07/27 11:22:29;;;;;;;5.83;5.43;;;29.30;85.40;;;;;;5013935;28;20493;-85
2021/07/27 11:24:56;;;;;;;5.00;4.67;;;29.60;84.20;;;;;;5014417;28;20450;-84
2021/07/27 11:27:28;;;;;;;4.83;4.30;;;30.10;83.40;;;;;;5014598;28;20475;-85
2021/07/27 11:29:57;;;;;;;4.53;4.23;;;30.50;84.20;;;;;;5014664;28;20838;-85
2021/07/27 11:32:56;;;;;;;4.40;4.10;;;31.00;79.80;;;;;;5013886;28;20928;-85
2021/07/27 11:35:24;;;;;;;3.97;3.60;;;31.30;75.30;;;;;;5009032;28;20464;-85
2021/07/27 11:38:03;;;;;;;5.27;4.87;;;31.30;74.40;;;;;;5014674;28;20512;-85
2021/07/27 11:40:30;;;;;;;4.60;4.30;;;31.50;74.20;;;;;;5014612;28;20459;-85
2021/07/27 11:43:05;;;;;;;5.13;4.73;;;31.40;72.30;;;;;;5013669;28;20860;-85
2021/07/27 11:45:32;;;;;;;4.50;4.20;;;31.40;72.20;;;;;;5015193;28;20468;-86
2021/07/27 11:47:58;;;;;;;4.43;4.10;;;31.40;73.00;;;;;;5014403;28;20459;-86
2021/07/27 11:50:30;;;;;;;4.57;4.27;;;31.40;70.40;;;;;;5014825;28;20460;-86
2021/07/27 11:52:58;;;;;;;5.90;5.40;;;31.20;71.20;;;;;;5013963;28;20453;-85
2021/07/27 11:55:31;;;;;;;4.70;4.30;;;30.90;71.60;;;;;;5015375;28;20524;-85
2021/07/27 11:57:58;;;;;;;4.33;3.73;;;30.50;73.30;;;;;;5014178;28;20939;-86
2021/07/27 12:00:25;;;;;;;4.50;4.20;;;30.50;72.10;;;;;;5014339;28;21137;-86
2021/07/27 12:02:52;;;;;;;4.90;4.50;;;30.30;70.20;;;;;;5015324;28;20489;-86
2021/07/27 12:05:19;;;;;;;3.87;3.57;;;30.00;69.20;;;;;;5015788;28;20456;-87
2021/07/27 12:07:45;;;;;;;3.70;3.50;;;29.60;72.60;;;;;;5015461;28;20982;-86
2021/07/27 12:10:14;;;;;;;4.07;3.83;;;29.50;72.00;;;;;;5015045;28;20461;-87
2021/07/27 12:12:43;;;;;;;4.83;4.50;;;29.40;72.60;;;;;;5014699;28;20458;-85
2021/07/27 12:15:12;;;;;;;4.40;4.10;;;29.30;74.40;;;;;;5014455;28;20496;-86
2021/07/27 12:17:39;;;;;;;4.63;4.33;;;29.30;75.10;;;;;;5014897;28;20456;-86
2021/07/27 12:20:07;;;;;;;5.33;4.97;;;29.20;73.70;;;;;;5014433;28;20456;-85
2021/07/27 12:22:37;;;;;;;4.77;4.37;;;29.30;72.00;;;;;;5013089;28;20487;-86
2021/07/27 12:25:04;;;;;;;4.90;4.50;;;29.30;71.40;;;;;;5014259;28;20464;-85
2021/07/27 12:27:30;;;;;;;6.77;5.17;;;29.30;71.40;;;;;;5014400;28;20476;-86
2021/07/27 12:29:59;;;;;;;4.33;4.03;;;29.30;72.30;;;;;;5013519;28;20457;-86
2021/07/27 12:32:26;;;;;;;3.43;3.23;;;29.40;70.30;;;;;;5013278;28;20560;-86
2021/07/27 12:34:53;;;;;;;4.73;4.37;;;29.40;71.10;;;;;;5014861;28;20460;-86
2021/07/27 12:37:19;;;;;;;3.83;3.53;;;29.60;70.40;;;;;;5015180;28;20473;-87
2021/07/27 12:39:47;;;;;;;4.27;3.97;;;29.80;72.00;;;;;;5016142;28;20454;-86
2021/07/27 12:42:14;;;;;;;3.63;3.40;;;30.00;69.20;;;;;;5012361;28;20497;-87
2021/07/27 12:44:41;;;;;;;4.57;4.17;;;30.20;68.10;;;;;;5013975;28;20454;-85
2021/07/27 12:47:09;;;;;;;3.90;3.60;;;30.50;70.80;;;;;;5013257;28;21015;-85
2021/07/27 12:49:36;;;;;;;5.10;4.60;;;31.00;65.30;;;;;;5014004;28;20453;-86
2021/07/27 12:52:07;;;;;;;4.00;3.70;;;31.30;67.30;;;;;;5012924;28;20467;-88
2021/07/27 12:54:34;;;;;;;3.63;3.33;;;31.70;65.60;;;;;;5013002;28;20543;-86
2021/07/27 12:57:01;;;;;;;4.37;4.07;;;32.10;64.90;;;;;;5012782;28;20477;-86
2021/07/27 12:59:30;;;;;;;5.03;4.30;;;32.50;64.30;;;;;;5015056;28;20967;-86
2021/07/27 13:01:56;;;;;;;4.83;4.53;;;32.60;63.90;;;;;;5013721;28;20481;-86
2021/07/27 13:04:25;;;;;;;3.73;3.43;;;32.80;61.50;;;;;;5014687;28;20452;-86
2021/07/27 13:06:52;;;;;;;4.23;3.83;;;33.20;60.70;;;;;;5015564;28;20502;-86
2021/07/27 13:09:18;;;;;;;4.50;4.20;;;33.20;60.00;;;;;;5013851;28;20465;-86
2021/07/27 13:11:48;;;;;;;4.20;3.90;;;33.10;60.50;;;;;;5013214;28;20450;-86